Time;durP1;ratioP1;P1;durP2;ratioP2;P2;SDS_P1;SDS_P2;PMS_P1;PMS_P2;Temp;Humidity;BMP_temperature;BMP_pressure;BME280_temperature;BME280_humidity;BME280_pressure;Samples;Min_cycle;Max_cycle;Signal;HPM_P1;HPM_P2
2023/08/14 00:01:21;;;;;;;6.77;5.40;;;20.50;99.90;;;;;;5052722;28;20251;-84
2023/08/14 00:03:46;;;;;;;7.23;4.77;;;20.50;99.90;;;;;;5044845;28;20639;-84
2023/08/14 00:06:12;;;;;;;6.80;5.50;;;20.70;99.90;;;;;;5052888;28;20196;-85
2023/08/14 00:08:37;;;;;;;7.40;5.20;;;20.70;99.90;;;;;;5046015;28;20176;-84
2023/08/14 00:11:03;;;;;;;14.00;5.37;;;20.70;99.90;;;;;;5042612;28;20184;-82
2023/08/14 00:13:28;;;;;;;14.67;4.63;;;20.80;99.90;;;;;;5050051;28;20267;-86
2023/08/14 00:15:54;;;;;;;7.17;5.00;;;20.90;99.90;;;;;;5044499;28;20218;-82
2023/08/14 00:18:19;;;;;;;8.93;4.53;;;20.90;99.90;;;;;;5048241;28;20196;-84
2023/08/14 00:20:45;;;;;;;7.27;5.30;;;20.80;99.90;;;;;;5046196;28;20173;-85
2023/08/14 00:23:11;;;;;;;7.93;5.60;;;20.90;99.90;;;;;;5062693;28;20184;-85
2023/08/14 00:25:36;;;;;;;6.30;5.20;;;20.90;99.90;;;;;;5062264;28;20209;-86
2023/08/14 00:28:02;;;;;;;4.63;3.80;;;21.00;99.90;;;;;;5055378;28;21420;-83
2023/08/14 00:30:28;;;;;;;8.50;4.10;;;21.00;99.90;;;;;;5040246;28;20253;-84
2023/08/14 00:32:53;;;;;;;5.30;4.47;;;21.10;99.90;;;;;;5048361;28;20181;-82
2023/08/14 00:35:19;;;;;;;10.50;5.80;;;20.90;99.90;;;;;;5059826;28;20640;-84
2023/08/14 00:37:46;;;;;;;5.13;4.27;;;20.80;99.90;;;;;;5046068;28;20245;-83
2023/08/14 00:40:13;;;;;;;6.13;4.40;;;20.80;99.90;;;;;;5039307;28;20189;-87
2023/08/14 00:42:40;;;;;;;6.67;4.63;;;20.60;99.90;;;;;;5043437;28;20434;-85
2023/08/14 00:45:06;;;;;;;10.20;4.30;;;20.60;99.90;;;;;;5037161;28;20963;-84
2023/08/14 00:47:34;;;;;;;6.47;4.53;;;20.60;99.90;;;;;;5062999;28;20525;-84
2023/08/14 00:50:04;;;;;;;8.33;6.03;;;20.70;99.90;;;;;;5038470;28;20468;-85
2023/08/14 00:52:31;;;;;;;5.73;5.07;;;20.90;99.90;;;;;;5036331;28;20481;-83
2023/08/14 00:55:00;;;;;;;8.47;5.60;;;21.10;99.90;;;;;;5039399;28;20457;-84
2023/08/14 00:57:26;;;;;;;5.60;4.60;;;21.10;99.90;;;;;;5046473;28;21011;-84
2023/08/14 00:59:52;;;;;;;5.00;4.50;;;21.10;99.90;;;;;;5044562;28;20438;-85
2023/08/14 01:02:18;;;;;;;6.53;4.73;;;21.00;99.90;;;;;;5061879;28;21511;-85
2023/08/14 01:04:43;;;;;;;5.50;4.60;;;21.00;99.90;;;;;;5041717;28;20196;-84
2023/08/14 01:07:09;;;;;;;8.30;4.50;;;21.10;99.90;;;;;;5042559;28;20434;-84
2023/08/14 01:09:34;;;;;;;6.80;4.90;;;21.00;99.90;;;;;;5073791;28;20176;-86
2023/08/14 01:12:10;;;;;;;7.73;4.90;;;21.00;99.90;;;;;;5064880;28;20176;-84
2023/08/14 01:14:37;;;;;;;11.27;5.10;;;21.00;99.90;;;;;;5058133;28;20192;-83
2023/08/14 01:17:08;;;;;;;7.00;5.80;;;21.00;99.90;;;;;;5057340;28;20431;-84
2023/08/14 01:19:37;;;;;;;7.03;5.10;;;20.90;99.90;;;;;;5057429;28;20466;-84
2023/08/14 01:22:09;;;;;;;7.03;5.13;;;20.90;99.90;;;;;;5039095;28;20430;-86
2023/08/14 01:24:59;;;;;;;7.50;5.87;;;20.90;99.90;;;;;;5043230;28;21008;-85
2023/08/14 01:27:25;;;;;;;6.27;5.67;;;20.90;99.90;;;;;;5043016;28;20465;-84
2023/08/14 01:29:57;;;;;;;10.03;5.23;;;20.70;99.90;;;;;;5056322;28;20456;-85
2023/08/14 01:32:22;;;;;;;7.13;4.97;;;20.80;99.90;;;;;;5043788;28;20527;-82
2023/08/14 01:34:48;;;;;;;9.90;4.73;;;20.90;99.90;;;;;;5055563;28;20529;-83
2023/08/14 01:37:21;;;;;;;5.63;5.03;;;21.00;99.90;;;;;;5039618;28;20188;-84
2023/08/14 01:39:52;;;;;;;7.13;5.10;;;21.10;99.90;;;;;;5038231;28;20286;-84
2023/08/14 01:42:23;;;;;;;8.80;5.20;;;21.20;99.90;;;;;;5060218;28;20422;-82
2023/08/14 01:44:54;;;;;;;9.03;5.63;;;20.90;99.90;;;;;;5037705;28;20554;-84
2023/08/14 01:47:23;;;;;;;8.33;5.83;;;21.30;99.90;;;;;;5036866;28;20909;-84
2023/08/14 01:49:50;;;;;;;5.93;5.33;;;21.20;99.90;;;;;;5061031;28;20985;-83
2023/08/14 01:52:15;;;;;;;8.80;6.23;;;21.10;99.90;;;;;;5035182;28;20485;-85
2023/08/14 01:54:41;;;;;;;14.70;6.70;;;21.00;99.90;;;;;;5045397;28;20450;-82
2023/08/14 01:57:06;;;;;;;13.47;7.17;;;21.10;99.90;;;;;;5042266;28;20204;-82
2023/08/14 01:59:42;;;;;;;10.67;7.60;;;21.10;99.90;;;;;;5043176;28;20277;-83
2023/08/14 02:02:10;;;;;;;14.87;7.77;;;21.20;99.90;;;;;;5043985;28;20179;-82
2023/08/14 02:04:35;;;;;;;9.87;6.40;;;21.20;99.90;;;;;;5034499;28;20843;-82
2023/08/14 02:07:01;;;;;;;6.80;5.93;;;21.20;99.90;;;;;;5039468;28;20442;-84
2023/08/14 02:09:26;;;;;;;16.63;6.93;;;21.20;99.90;;;;;;5061049;28;20188;-84
2023/08/14 02:11:52;;;;;;;7.77;6.00;;;21.20;99.90;;;;;;5047199;28;20184;-85
2023/08/14 02:14:17;;;;;;;10.07;6.90;;;21.20;99.90;;;;;;5062936;28;20683;-84
2023/08/14 02:16:43;;;;;;;8.70;5.70;;;21.20;99.90;;;;;;5060594;28;20225;-83
2023/08/14 02:19:08;;;;;;;10.23;6.80;;;21.10;99.90;;;;;;5055126;28;20229;-86
2023/08/14 02:21:34;;;;;;;6.90;6.20;;;21.10;99.90;;;;;;5061291;28;20267;-85
2023/08/14 02:23:59;;;;;;;8.90;6.63;;;21.20;99.90;;;;;;5044440;28;20176;-83
2023/08/14 02:26:25;;;;;;;9.77;6.73;;;21.20;99.90;;;;;;5045729;28;20678;-86
2023/08/14 02:28:52;;;;;;;10.83;6.80;;;21.20;99.90;;;;;;5044696;28;20181;-84
2023/08/14 02:31:17;;;;;;;8.80;6.80;;;21.30;99.90;;;;;;5042748;28;20217;-84
2023/08/14 02:33:43;;;;;;;8.47;6.10;;;21.30;99.90;;;;;;5054768;28;20529;-86
2023/08/14 02:36:08;;;;;;;7.60;6.03;;;21.50;99.90;;;;;;5044361;28;20203;-82
2023/08/14 02:38:35;;;;;;;10.50;6.33;;;21.50;99.90;;;;;;5057238;28;20732;-83
2023/08/14 02:41:04;;;;;;;7.93;6.10;;;21.50;99.90;;;;;;5061336;28;20188;-84
2023/08/14 02:43:30;;;;;;;13.57;7.23;;;22.00;99.90;;;;;;5060919;28;21039;-84
2023/08/14 02:45:55;;;;;;;5.77;5.23;;;21.60;99.90;;;;;;5034468;28;20455;-84
2023/08/14 02:48:23;;;;;;;7.00;5.30;;;21.70;99.90;;;;;;5046551;28;20449;-83
2023/08/14 02:50:49;;;;;;;7.70;6.87;;;21.60;99.90;;;;;;5042006;28;20176;-84
2023/08/14 02:53:14;;;;;;;7.73;6.07;;;21.60;99.90;;;;;;5066896;28;20461;-83
2023/08/14 02:55:40;;;;;;;9.80;6.70;;;21.60;99.90;;;;;;5050181;28;20588;-83
2023/08/14 02:58:05;;;;;;;8.60;6.43;;;21.50;99.90;;;;;;5062272;28;20350;-83
2023/08/14 03:00:30;;;;;;;9.23;7.30;;;21.50;99.90;;;;;;5039953;28;20181;-83
2023/08/14 03:02:56;;;;;;;7.17;6.17;;;21.60;99.90;;;;;;5044703;28;20600;-83
2023/08/14 03:05:22;;;;;;;7.90;6.30;;;21.70;99.90;;;;;;5042168;28;20224;-82
2023/08/14 03:07:47;;;;;;;9.67;6.57;;;21.70;99.90;;;;;;5045849;28;20211;-85
2023/08/14 03:10:13;;;;;;;10.33;6.40;;;21.70;99.90;;;;;;5047807;28;20184;-82
2023/08/14 03:12:38;;;;;;;7.80;6.40;;;21.70;99.90;;;;;;5045588;28;20267;-84
2023/08/14 03:15:07;;;;;;;9.33;6.50;;;21.60;99.90;;;;;;5064588;28;20577;-84
2023/08/14 03:17:32;;;;;;;9.37;6.60;;;21.60;99.90;;;;;;5044332;28;20207;-83
2023/08/14 03:19:58;;;;;;;6.77;6.07;;;21.60;99.90;;;;;;5064273;28;20525;-85
2023/08/14 03:22:23;;;;;;;7.33;6.53;;;21.50;99.90;;;;;;5064880;28;20222;-84
2023/08/14 03:24:49;;;;;;;10.07;6.40;;;21.40;99.90;;;;;;5051404;28;20852;-84
2023/08/14 03:27:14;;;;;;;12.43;7.30;;;21.50;99.90;;;;;;5062677;28;20176;-84
2023/08/14 03:29:40;;;;;;;9.57;7.20;;;21.40;99.90;;;;;;5050901;28;20180;-86
2023/08/14 03:32:05;;;;;;;8.30;7.50;;;21.40;99.90;;;;;;5048777;28;21065;-86
2023/08/14 03:34:31;;;;;;;9.93;7.63;;;21.30;99.90;;;;;;5048795;28;20191;-84
2023/08/14 03:36:56;;;;;;;9.43;7.80;;;21.40;99.90;;;;;;5069049;28;20612;-84
2023/08/14 03:39:22;;;;;;;9.77;7.37;;;21.40;99.90;;;;;;5046092;28;20797;-83
2023/08/14 03:41:48;;;;;;;12.87;7.60;;;20.40;99.90;;;;;;5062920;28;20176;-84
2023/08/14 03:44:13;;;;;;;10.83;7.00;;;21.30;99.90;;;;;;5046216;28;20187;-84
2023/08/14 03:46:39;;;;;;;10.20;7.80;;;21.20;99.90;;;;;;5040870;28;20201;-84
2023/08/14 03:49:05;;;;;;;10.30;7.70;;;21.10;99.90;;;;;;5043427;28;20558;-86
2023/08/14 03:51:30;;;;;;;8.93;7.10;;;20.90;99.90;;;;;;5043068;28;20173;-84
2023/08/14 03:53:56;;;;;;;13.30;7.80;;;20.90;99.90;;;;;;5065015;28;20624;-83
2023/08/14 03:56:21;;;;;;;9.30;7.70;;;20.90;99.90;;;;;;5043497;28;20751;-83
2023/08/14 03:58:47;;;;;;;8.10;7.30;;;20.90;99.90;;;;;;5038687;28;20200;-83
2023/08/14 04:01:13;;;;;;;12.10;7.73;;;20.90;99.90;;;;;;5058288;28;20173;-82
2023/08/14 04:03:38;;;;;;;10.33;7.63;;;20.80;99.90;;;;;;5061596;28;20679;-83
2023/08/14 04:06:04;;;;;;;9.73;7.90;;;20.90;99.90;;;;;;5051970;28;20646;-83
2023/08/14 04:08:29;;;;;;;10.93;8.03;;;20.80;99.90;;;;;;5047839;28;20799;-82
2023/08/14 04:10:59;;;;;;;8.80;6.77;;;20.80;99.90;;;;;;5048500;28;20184;-83
2023/08/14 04:13:25;;;;;;;14.70;7.83;;;20.80;99.90;;;;;;5040672;28;20184;-82
2023/08/14 04:15:59;;;;;;;8.50;6.90;;;20.70;99.90;;;;;;5066352;28;20541;-83
2023/08/14 04:18:27;;;;;;;7.57;6.80;;;20.60;99.90;;;;;;5035179;28;20469;-82
2023/08/14 04:20:53;;;;;;;6.50;5.90;;;20.60;99.90;;;;;;5046517;28;20443;-84
2023/08/14 04:23:19;;;;;;;9.83;6.87;;;20.40;99.90;;;;;;5065632;28;21054;-83
2023/08/14 04:25:45;;;;;;;8.57;6.73;;;20.50;99.90;;;;;;5041832;28;20474;-82
2023/08/14 04:28:10;;;;;;;10.67;6.43;;;20.50;99.90;;;;;;5041350;28;20589;-82
2023/08/14 04:30:36;;;;;;;20.03;7.03;;;20.40;99.90;;;;;;5063566;28;20855;-83
2023/08/14 04:33:01;;;;;;;9.47;6.77;;;20.40;99.90;;;;;;5044936;28;20667;-84
2023/08/14 04:35:27;;;;;;;11.60;8.20;;;20.30;99.90;;;;;;5043301;28;20204;-87
2023/08/14 04:37:52;;;;;;;8.43;7.33;;;20.40;99.90;;;;;;5057866;28;20746;-87
2023/08/14 04:40:19;;;;;;;7.60;6.23;;;20.30;99.90;;;;;;5043768;28;20215;-85
2023/08/14 04:42:44;;;;;;;10.13;6.80;;;20.30;99.90;;;;;;5048354;28;20665;-83
2023/08/14 04:45:10;;;;;;;9.23;6.87;;;20.20;99.90;;;;;;5061913;28;20473;-81
2023/08/14 04:47:36;;;;;;;8.40;7.50;;;20.30;99.90;;;;;;5057274;28;20180;-84
2023/08/14 04:50:01;;;;;;;11.00;6.27;;;20.30;99.90;;;;;;5061391;28;20219;-84
2023/08/14 04:52:27;;;;;;;9.10;7.20;;;20.40;99.90;;;;;;5054553;28;20188;-82
2023/08/14 04:54:52;;;;;;;11.00;6.67;;;20.40;99.90;;;;;;5080548;28;20212;-83
2023/08/14 04:57:19;;;;;;;9.10;5.80;;;20.50;99.90;;;;;;5080571;28;20189;-81
2023/08/14 04:59:45;;;;;;;8.60;6.30;;;20.60;99.90;;;;;;5036792;28;20232;-82
2023/08/14 05:02:10;;;;;;;8.93;5.90;;;20.70;99.90;;;;;;5060866;28;20520;-84
2023/08/14 05:04:36;;;;;;;6.97;5.50;;;20.90;99.90;;;;;;5037930;28;20199;-84
2023/08/14 05:07:01;;;;;;;8.20;6.30;;;21.10;99.90;;;;;;5039193;28;20214;-82
2023/08/14 05:09:27;;;;;;;11.43;5.83;;;21.20;99.90;;;;;;5038577;28;20188;-84
2023/08/14 05:11:52;;;;;;;6.27;4.80;;;21.80;99.90;;;;;;5041896;28;20207;-87
2023/08/14 05:14:18;;;;;;;6.90;4.90;;;22.40;99.90;;;;;;5040021;28;20255;-84
2023/08/14 05:16:47;;;;;;;8.83;3.97;;;23.40;99.90;;;;;;5060604;28;20206;-84
2023/08/14 05:19:13;;;;;;;5.77;4.03;;;25.60;99.90;;;;;;5062512;28;20456;-85
2023/08/14 05:21:38;;;;;;;4.13;3.70;;;28.10;99.90;;;;;;5062879;28;20433;-82
2023/08/14 05:24:04;;;;;;;6.00;3.77;;;29.80;99.90;;;;;;5057472;28;20207;-83
2023/08/14 05:26:30;;;;;;;7.10;3.60;;;29.30;99.90;;;;;;5056496;28;20249;-82
2023/08/14 05:28:55;;;;;;;5.60;4.23;;;30.00;99.90;;;;;;5034305;28;20523;-84
2023/08/14 05:31:21;;;;;;;4.40;4.00;;;30.20;99.90;;;;;;5026221;28;20429;-83
2023/08/14 05:33:46;;;;;;;4.83;4.33;;;31.80;99.90;;;;;;5050779;28;20585;-84
2023/08/14 05:36:12;;;;;;;8.53;4.60;;;31.90;99.90;;;;;;5031992;28;20205;-81
2023/08/14 05:38:38;;;;;;;6.83;6.13;;;29.80;99.90;;;;;;5032176;28;20196;-84
2023/08/14 05:41:03;;;;;;;8.03;5.40;;;28.70;99.90;;;;;;5056811;28;20264;-82
2023/08/14 05:43:29;;;;;;;6.80;5.80;;;27.20;99.90;;;;;;5031704;28;20182;-83
2023/08/14 05:45:54;;;;;;;6.43;5.20;;;26.50;99.90;;;;;;5049886;28;20285;-83
2023/08/14 05:48:21;;;;;;;9.73;6.40;;;25.90;99.90;;;;;;5053573;28;20197;-84
2023/08/14 05:50:48;;;;;;;6.27;5.00;;;25.60;99.90;;;;;;5058028;28;20236;-82
2023/08/14 05:53:14;;;;;;;7.60;6.07;;;25.00;99.90;;;;;;5060839;28;20459;-82
2023/08/14 05:55:41;;;;;;;7.30;5.27;;;24.80;99.90;;;;;;5056287;28;20538;-83
2023/08/14 05:58:07;;;;;;;6.37;5.23;;;24.90;99.90;;;;;;5039319;28;20198;-83
2023/08/14 06:00:34;;;;;;;7.60;5.40;;;25.20;99.90;;;;;;5039157;28;20497;-84
2023/08/14 06:03:00;;;;;;;10.10;5.70;;;25.40;99.90;;;;;;5036470;28;20268;-86
2023/08/14 06:05:26;;;;;;;6.87;5.27;;;26.10;99.90;;;;;;5036770;28;20450;-84
2023/08/14 06:07:53;;;;;;;7.23;5.30;;;28.10;99.90;;;;;;5039124;28;20500;-83
2023/08/14 06:10:19;;;;;;;4.43;3.43;;;30.70;99.90;;;;;;5054709;28;21285;-82
2023/08/14 06:12:45;;;;;;;5.53;3.67;;;31.10;99.90;;;;;;5040041;28;20437;-85
2023/08/14 06:15:12;;;;;;;5.30;3.87;;;30.70;99.90;;;;;;5058157;28;20516;-82
2023/08/14 06:17:38;;;;;;;4.90;3.50;;;31.70;99.90;;;;;;5056991;28;20786;-84
2023/08/14 06:20:05;;;;;;;5.63;3.53;;;32.30;99.90;;;;;;5039506;28;20458;-83
2023/08/14 06:22:31;;;;;;;3.17;2.80;;;32.10;99.90;;;;;;5055713;28;20427;-81
2023/08/14 06:24:56;;;;;;;5.83;2.80;;;31.40;99.90;;;;;;5054667;28;22349;-81
2023/08/14 06:27:22;;;;;;;4.13;2.70;;;30.70;99.90;;;;;;5056315;28;20221;-82
2023/08/14 06:29:47;;;;;;;2.80;2.60;;;30.60;99.90;;;;;;5037206;28;20197;-83
2023/08/14 06:32:13;;;;;;;3.30;2.57;;;31.10;99.90;;;;;;5042885;28;20272;-82
2023/08/14 06:34:38;;;;;;;5.57;2.87;;;31.00;99.90;;;;;;5039027;28;20198;-84
2023/08/14 06:37:04;;;;;;;3.70;2.70;;;29.80;99.90;;;;;;5038704;28;20221;-84
2023/08/14 06:39:30;;;;;;;2.10;1.90;;;29.50;99.90;;;;;;5029393;28;20225;-84
2023/08/14 06:41:56;;;;;;;4.43;1.97;;;29.30;99.90;;;;;;5037065;28;20191;-84
2023/08/14 06:44:22;;;;;;;2.63;2.13;;;30.40;99.90;;;;;;5055448;28;20443;-83
2023/08/14 06:46:47;;;;;;;5.23;2.10;;;31.10;99.90;;;;;;5057095;28;20201;-84
2023/08/14 06:49:14;;;;;;;4.00;2.13;;;31.00;99.90;;;;;;5034038;28;20185;-83
2023/08/14 06:51:40;;;;;;;6.67;2.17;;;31.60;99.90;;;;;;5035154;28;20192;-82
2023/08/14 06:54:06;;;;;;;3.03;2.37;;;34.20;99.90;;;;;;5041020;28;20452;-83
2023/08/14 06:56:32;;;;;;;5.90;2.57;;;36.00;99.90;;;;;;5055601;28;20453;-84
2023/08/14 06:58:57;;;;;;;2.73;1.70;;;37.40;98.40;;;;;;5032578;28;20269;-84
2023/08/14 07:01:23;;;;;;;2.40;1.77;;;39.90;93.40;;;;;;5052898;28;20177;-84
2023/08/14 07:03:49;;;;;;;5.93;1.67;;;42.40;84.20;;;;;;5036310;28;20184;-84
2023/08/14 07:06:15;;;;;;;4.27;2.10;;;44.00;72.50;;;;;;5038507;28;20462;-86
2023/08/14 07:08:41;;;;;;;6.33;2.20;;;42.70;61.90;;;;;;5058634;28;20218;-86
2023/08/14 07:11:07;;;;;;;3.80;2.67;;;39.70;65.50;;;;;;5035941;28;20173;-86
2023/08/14 07:13:32;;;;;;;3.30;2.37;;;37.80;75.70;;;;;;5065999;28;20522;-82
2023/08/14 07:15:58;;;;;;;3.50;2.20;;;36.80;77.40;;;;;;5049038;28;20564;-84
2023/08/14 07:18:23;;;;;;;2.90;2.30;;;36.70;78.70;;;;;;5055898;28;20291;-85
2023/08/14 07:20:49;;;;;;;2.47;1.77;;;35.30;80.60;;;;;;5033350;28;20274;-84
2023/08/14 07:23:19;;;;;;;4.87;2.50;;;34.80;83.90;;;;;;5044149;28;20184;-86
2023/08/14 07:25:45;;;;;;;2.80;2.03;;;36.00;87.50;;;;;;5038299;28;20211;-84
2023/08/14 07:28:11;;;;;;;2.30;1.63;;;37.20;81.80;;;;;;5056643;28;20533;-83
2023/08/14 07:30:38;;;;;;;5.10;1.77;;;37.90;77.40;;;;;;5041699;28;20446;-84
2023/08/14 07:33:04;;;;;;;1.90;1.37;;;40.40;71.70;;;;;;5063462;28;20442;-82
2023/08/14 07:35:31;;;;;;;2.90;1.90;;;40.80;65.90;;;;;;5062090;28;20453;-84
2023/08/14 07:37:58;;;;;;;2.97;1.43;;;41.50;65.00;;;;;;5037857;28;20494;-84
2023/08/14 07:40:24;;;;;;;2.00;1.90;;;41.40;61.90;;;;;;5052155;28;20459;-84
2023/08/14 07:42:49;;;;;;;3.10;1.13;;;40.20;62.50;;;;;;5062048;28;20446;-83
2023/08/14 07:45:15;;;;;;;2.57;1.87;;;39.90;65.20;;;;;;5062628;28;20458;-83
2023/08/14 07:47:41;;;;;;;2.33;1.60;;;40.70;59.60;;;;;;5038033;28;20207;-82
2023/08/14 07:50:07;;;;;;;4.03;1.87;;;40.40;59.50;;;;;;5055721;28;20179;-84
2023/08/14 07:52:34;;;;;;;4.30;1.40;;;40.60;60.30;;;;;;5063402;28;20180;-87
2023/08/14 07:55:00;;;;;;;2.57;1.63;;;39.10;62.10;;;;;;5057378;28;20486;-82
2023/08/14 07:57:26;;;;;;;4.83;2.10;;;37.30;68.50;;;;;;5060967;28;20515;-83
2023/08/14 07:59:52;;;;;;;8.23;2.03;;;37.80;69.50;;;;;;5034116;28;21053;-86
2023/08/14 08:02:17;;;;;;;3.40;2.00;;;38.50;69.60;;;;;;5040135;28;20507;-83
2023/08/14 08:04:43;;;;;;;2.83;2.10;;;37.70;69.50;;;;;;5038639;28;20188;-86
2023/08/14 08:07:09;;;;;;;2.77;1.80;;;37.50;71.00;;;;;;5056451;28;20184;-83
2023/08/14 08:09:34;;;;;;;3.67;2.23;;;37.90;73.60;;;;;;5057451;28;20180;-85
2023/08/14 08:12:00;;;;;;;1.77;1.63;;;39.50;72.00;;;;;;5063263;28;20467;-82
2023/08/14 08:14:26;;;;;;;4.83;1.80;;;40.10;68.90;;;;;;5043858;28;20345;-84
2023/08/14 08:16:52;;;;;;;1.87;1.53;;;41.40;62.10;;;;;;5039062;28;20218;-83
2023/08/14 08:19:18;;;;;;;3.10;1.63;;;40.90;61.60;;;;;;5034428;28;20458;-83
2023/08/14 08:21:43;;;;;;;2.23;1.70;;;40.20;61.20;;;;;;5039921;28;20243;-82
2023/08/14 08:24:09;;;;;;;2.83;1.77;;;39.60;62.00;;;;;;5035472;28;20441;-82
2023/08/14 08:26:36;;;;;;;4.00;1.97;;;39.30;62.50;;;;;;5070225;28;20210;-86
2023/08/14 08:29:02;;;;;;;3.00;1.50;;;40.30;64.50;;;;;;5042127;28;20787;-82
2023/08/14 08:31:27;;;;;;;2.00;1.80;;;41.40;60.00;;;;;;5054325;28;20450;-83
2023/08/14 08:33:53;;;;;;;4.20;2.43;;;39.90;57.90;;;;;;5037781;28;20434;-83
2023/08/14 08:36:18;;;;;;;2.30;1.70;;;36.10;64.40;;;;;;5045832;28;20639;-85
2023/08/14 08:38:47;;;;;;;4.93;2.10;;;37.00;69.80;;;;;;5057605;28;20237;-83
2023/08/14 08:41:18;;;;;;;2.53;1.60;;;37.90;65.30;;;;;;5043342;28;20211;-84
2023/08/14 08:43:43;;;;;;;3.67;1.33;;;38.40;63.00;;;;;;5044976;28;20454;-83
2023/08/14 08:46:10;;;;;;;3.83;1.47;;;40.40;59.30;;;;;;5063171;28;20546;-84
2023/08/14 08:48:41;;;;;;;2.90;1.60;;;40.40;59.70;;;;;;5033204;28;20192;-84
2023/08/14 08:51:08;;;;;;;1.97;1.73;;;41.00;58.10;;;;;;5038883;28;20533;-86
2023/08/14 08:53:35;;;;;;;1.40;1.30;;;40.10;57.60;;;;;;5037711;28;21362;-87
2023/08/14 08:56:01;;;;;;;1.80;1.33;;;39.60;59.80;;;;;;5062477;28;20468;-85
2023/08/14 08:58:27;;;;;;;2.50;1.60;;;40.70;59.80;;;;;;5059262;28;20901;-86
2023/08/14 09:00:54;;;;;;;3.47;2.00;;;40.70;58.60;;;;;;5032723;28;20460;-81
2023/08/14 09:03:21;;;;;;;2.40;1.67;;;40.10;58.70;;;;;;5059313;28;20388;-86
2023/08/14 09:05:47;;;;;;;4.73;1.83;;;39.10;59.20;;;;;;5037617;28;20482;-85
2023/08/14 09:08:12;;;;;;;2.63;1.80;;;40.60;58.30;;;;;;5038585;28;20470;-82
2023/08/14 09:10:38;;;;;;;1.87;1.63;;;41.60;56.90;;;;;;5039978;28;20242;-83
2023/08/14 09:13:04;;;;;;;3.00;1.97;;;42.30;56.40;;;;;;5056507;28;20958;-85
2023/08/14 09:15:30;;;;;;;2.70;1.57;;;42.10;55.50;;;;;;5040389;28;20261;-86
2023/08/14 09:17:55;;;;;;;6.47;2.30;;;42.50;54.80;;;;;;5040126;28;20466;-84
2023/08/14 09:20:22;;;;;;;4.37;2.00;;;42.10;56.20;;;;;;5053610;28;20189;-85
2023/08/14 09:22:48;;;;;;;3.47;2.40;;;42.50;54.40;;;;;;5048430;28;20648;-85
2023/08/14 09:25:15;;;;;;;3.80;2.37;;;40.50;55.60;;;;;;5060180;28;20458;-84
2023/08/14 09:27:42;;;;;;;3.13;2.57;;;40.10;56.20;;;;;;5059351;28;20180;-86
2023/08/14 09:30:10;;;;;;;5.00;2.67;;;39.10;56.80;;;;;;5058839;28;20452;-87
2023/08/14 09:32:36;;;;;;;3.23;2.57;;;39.30;57.30;;;;;;5040399;28;20430;-86
2023/08/14 09:35:02;;;;;;;5.20;2.67;;;39.00;57.70;;;;;;5041691;28;20460;-82
2023/08/14 09:37:28;;;;;;;4.80;2.40;;;39.30;58.00;;;;;;5036171;28;20739;-86
2023/08/14 09:40:14;;;;;;;5.70;2.40;;;39.00;59.50;;;;;;5033807;28;20458;-83
2023/08/14 09:42:41;;;;;;;4.50;2.37;;;39.10;61.90;;;;;;5043782;28;20498;-81
2023/08/14 09:45:07;;;;;;;4.30;2.70;;;39.50;59.80;;;;;;5081765;28;20471;-84
2023/08/14 09:47:34;;;;;;;7.00;2.70;;;39.70;59.30;;;;;;5075199;28;20434;-84
2023/08/14 09:50:00;;;;;;;3.67;2.43;;;38.80;58.80;;;;;;5080315;28;21267;-82
2023/08/14 09:52:25;;;;;;;3.87;2.73;;;39.50;62.50;;;;;;5077405;28;20430;-84
2023/08/14 09:54:52;;;;;;;3.30;2.80;;;39.60;61.40;;;;;;5051427;28;20529;-85
2023/08/14 09:57:20;;;;;;;4.80;3.00;;;40.20;60.80;;;;;;5059861;28;20176;-86
2023/08/14 09:59:46;;;;;;;3.50;3.20;;;39.20;61.20;;;;;;5054379;28;20465;-83
2023/08/14 10:02:16;;;;;;;4.30;3.10;;;38.90;63.40;;;;;;5057738;28;20847;-85
2023/08/14 10:04:46;;;;;;;3.20;2.90;;;38.30;62.30;;;;;;5052015;28;20814;-86
2023/08/14 10:07:14;;;;;;;8.03;3.17;;;37.70;65.20;;;;;;5057412;28;20540;-83
2023/08/14 10:09:43;;;;;;;4.57;3.53;;;38.40;67.10;;;;;;5039900;28;20430;-83
2023/08/14 10:12:13;;;;;;;3.50;3.10;;;39.70;64.80;;;;;;5058722;28;20452;-86
2023/08/14 10:14:41;;;;;;;3.93;3.37;;;39.60;60.00;;;;;;5040125;28;20477;-83
2023/08/14 10:17:12;;;;;;;6.03;3.53;;;39.90;59.30;;;;;;5036978;28;21671;-83
2023/08/14 10:19:40;;;;;;;3.60;3.30;;;40.20;59.90;;;;;;5035297;28;20466;-86
2023/08/14 10:22:07;;;;;;;4.33;3.93;;;40.90;59.60;;;;;;5038312;28;21084;-85
2023/08/14 10:24:36;;;;;;;5.77;3.93;;;39.30;61.20;;;;;;5037365;28;20434;-83
2023/08/14 10:27:03;;;;;;;5.60;4.10;;;37.80;66.20;;;;;;5038751;28;20989;-85
2023/08/14 10:29:30;;;;;;;4.13;3.43;;;36.60;69.10;;;;;;5056053;28;20480;-85
2023/08/14 10:31:56;;;;;;;4.97;3.97;;;35.20;74.60;;;;;;5033779;28;21006;-86
2023/08/14 10:34:23;;;;;;;6.53;3.57;;;34.10;78.20;;;;;;5035820;28;20810;-84
2023/08/14 10:36:52;;;;;;;5.37;3.67;;;33.10;81.40;;;;;;5056077;28;21028;-85
2023/08/14 10:39:18;;;;;;;7.57;4.30;;;32.80;88.80;;;;;;5039814;28;20556;-84
2023/08/14 10:41:44;;;;;;;4.53;3.10;;;32.80;91.70;;;;;;5054511;28;21307;-83
2023/08/14 10:44:11;;;;;;;4.60;3.90;;;32.70;91.20;;;;;;5057017;28;21135;-85
2023/08/14 10:46:44;;;;;;;4.00;3.67;;;32.60;91.50;;;;;;5036680;28;20834;-81
2023/08/14 10:49:14;;;;;;;4.70;4.30;;;32.60;93.20;;;;;;5039155;28;20449;-82
2023/08/14 10:51:43;;;;;;;5.17;4.40;;;32.30;94.50;;;;;;5038412;28;20492;-83
2023/08/14 10:54:10;;;;;;;6.80;4.13;;;31.70;96.40;;;;;;5057403;28;20454;-84
2023/08/14 10:56:45;;;;;;;7.43;4.00;;;31.50;97.20;;;;;;5061528;28;20476;-84
2023/08/14 10:59:24;;;;;;;6.57;4.10;;;31.50;98.30;;;;;;5040379;28;20498;-83
2023/08/14 11:01:52;;;;;;;6.23;4.60;;;31.70;99.10;;;;;;5043354;28;20438;-83
2023/08/14 11:04:17;;;;;;;4.43;4.03;;;32.10;97.40;;;;;;5041649;28;20528;-85
2023/08/14 11:06:58;;;;;;;4.87;3.93;;;31.90;97.60;;;;;;5073553;28;20470;-81
2023/08/14 11:09:27;;;;;;;5.80;4.03;;;30.80;99.90;;;;;;5067176;28;20697;-83
2023/08/14 11:11:56;;;;;;;9.07;4.50;;;29.30;99.90;;;;;;5061665;28;21271;-84
2023/08/14 11:14:21;;;;;;;9.33;4.13;;;30.80;99.90;;;;;;5043570;28;20438;-86
2023/08/14 11:16:49;;;;;;;4.80;4.00;;;30.80;99.90;;;;;;5061160;28;20468;-87
2023/08/14 11:19:17;;;;;;;5.73;4.13;;;31.10;99.90;;;;;;5059721;28;20220;-84
2023/08/14 11:21:46;;;;;;;4.47;4.07;;;31.30;99.90;;;;;;5044984;28;20446;-85
2023/08/14 11:24:12;;;;;;;10.53;4.60;;;31.40;99.90;;;;;;5060378;28;20520;-84
2023/08/14 11:26:38;;;;;;;5.00;3.97;;;31.90;99.90;;;;;;5062423;28;20550;-86
2023/08/14 11:29:03;;;;;;;4.70;3.43;;;32.30;99.90;;;;;;5042385;28;20704;-85
2023/08/14 11:31:29;;;;;;;3.93;3.53;;;32.80;99.90;;;;;;5057148;28;20181;-84
2023/08/14 11:33:55;;;;;;;5.13;3.30;;;32.80;99.90;;;;;;5052046;28;20216;-83
2023/08/14 11:36:20;;;;;;;3.73;3.07;;;33.20;98.30;;;;;;5059675;28;21339;-83
2023/08/14 11:38:46;;;;;;;3.53;3.23;;;33.40;99.10;;;;;;5039134;28;20253;-84
2023/08/14 11:41:12;;;;;;;6.20;3.63;;;33.10;97.50;;;;;;5040612;28;20194;-84
2023/08/14 11:43:37;;;;;;;6.63;3.20;;;33.10;97.30;;;;;;5041053;28;20179;-84
2023/08/14 11:46:03;;;;;;;5.33;3.10;;;33.00;98.00;;;;;;5058039;28;20209;-81
2023/08/14 11:48:31;;;;;;;4.53;3.90;;;32.30;98.90;;;;;;5030973;28;20234;-83
2023/08/14 11:50:58;;;;;;;8.10;4.00;;;31.50;99.90;;;;;;5053802;28;21291;-86
2023/08/14 11:53:25;;;;;;;4.27;3.43;;;31.00;99.90;;;;;;5041093;28;21040;-83
2023/08/14 11:55:51;;;;;;;4.07;3.63;;;30.80;99.90;;;;;;5044881;28;20491;-83
2023/08/14 11:58:17;;;;;;;3.03;2.73;;;30.40;99.90;;;;;;5062665;28;21070;-83
2023/08/14 12:00:43;;;;;;;3.93;3.53;;;30.30;99.90;;;;;;5043059;28;20190;-83
2023/08/14 12:03:10;;;;;;;6.83;3.17;;;30.50;99.90;;;;;;5041622;28;20452;-82
2023/08/14 12:05:35;;;;;;;4.50;3.50;;;30.70;99.90;;;;;;5044662;28;20256;-84
2023/08/14 12:08:02;;;;;;;5.97;3.43;;;30.70;99.90;;;;;;5046676;28;20433;-87
2023/08/14 12:10:32;;;;;;;7.73;3.77;;;30.20;99.90;;;;;;5064000;28;20174;-86
2023/08/14 12:12:58;;;;;;;5.03;3.63;;;29.70;99.90;;;;;;5064002;28;20459;-84
2023/08/14 12:15:23;;;;;;;4.07;3.50;;;29.40;99.90;;;;;;5043684;28;20490;-84
2023/08/14 12:17:49;;;;;;;3.93;2.90;;;29.10;99.90;;;;;;5044434;28;20181;-85
2023/08/14 12:20:16;;;;;;;3.10;2.80;;;28.80;99.90;;;;;;5039962;28;20181;-83
2023/08/14 12:22:42;;;;;;;7.77;3.43;;;28.50;99.90;;;;;;5053682;28;20189;-85
2023/08/14 12:25:08;;;;;;;4.07;3.00;;;28.40;99.90;;;;;;5052230;28;20488;-84
2023/08/14 12:27:34;;;;;;;3.60;3.30;;;28.20;99.90;;;;;;5061053;28;20192;-87
2023/08/14 12:30:00;;;;;;;6.90;4.43;;;28.30;99.90;;;;;;5051622;28;20445;-82
2023/08/14 12:32:26;;;;;;;5.70;3.20;;;28.40;99.90;;;;;;5062551;28;21122;-84
2023/08/14 12:34:52;;;;;;;4.80;3.10;;;28.70;99.90;;;;;;5064187;28;20191;-84
2023/08/14 12:37:18;;;;;;;4.97;3.13;;;29.00;99.90;;;;;;5071671;28;20434;-81
2023/08/14 12:39:45;;;;;;;5.00;3.20;;;29.40;99.90;;;;;;5085403;28;20506;-81
2023/08/14 12:42:14;;;;;;;5.30;3.13;;;30.20;99.90;;;;;;5049485;28;20443;-83